ADDS METAR Data INFO
IDs: Format: Raw Decoded Include TAF

Data at: 0240 UTC 17 Jan 2018

KEKQ 170156Z AUTO 33005KT 10SM CLR M18/M19 A3058 RMK AO2 SLP386 T11781194
KEKQ 170056Z AUTO VRB03KT 10SM CLR M19/M22 A3058 RMK AO2 SLP384 T11891217
KEKQ 162356Z AUTO 36010KT 10SM CLR M16/M18 A3056 RMK AO2 SNE09 SLP379 P0000 60000 T11611178 11094 21161 53010
KEKQ 162256Z AUTO 31005KT 10SM -SN SCT043 M16/M18 A3054 RMK AO2 SNB55 SLP373 P0000 T11611183
KEKQ 162156Z AUTO 29007KT 10SM CLR M10/M14 A3054 RMK AO2 SNE34 SLP369 P0000 T11001144
KEKQ 162123Z AUTO 29006KT 6SM -SN FEW010 BKN013 OVC065 M11/M13 A3053 RMK AO2 P0000
KEKQ 162056Z AUTO VRB05KT 4SM -SN FEW008 BKN026 OVC065 M11/M13 A3053 RMK AO2 SLP367 P0000 60000 T11061133 53004
KEKQ 162042Z AUTO VRB06KT 2SM -SN BKN019 OVC026 M11/M13 A3052 RMK AO2 VIS 1 1/4V5 P0000
KEKQ 162028Z AUTO 32006KT 3SM -SN SCT019 OVC026 M10/M13 A3052 RMK AO2 P0000
KEKQ 161956Z AUTO 31007KT 2 1/2SM -SN BKN019 OVC027 M10/M13 A3051 RMK AO2 VIS 1 1/2V5 SLP359 P0000 T11001133
KEKQ 161908Z AUTO 32009KT 2 1/2SM -SN BKN024 OVC031 M09/M13 A3050 RMK AO2 VIS 1 3/4V4 P0000
KEKQ 161856Z AUTO 31007KT 3SM -SN BKN026 OVC033 M09/M13 A3050 RMK AO2 SLP359 P0000 T10941128
KEKQ 161756Z AUTO 30009KT 4SM -SN BKN032 BKN041 OVC049 M09/M13 A3052 RMK AO2 SLP363 P0000 60000 T10941128 11078 21100 58004
KEKQ 161656Z AUTO 29010KT 6SM -SN FEW012 SCT028 OVC060 M09/M13 A3054 RMK AO2 SLP371 P0000 T10941128
KEKQ 161639Z AUTO 29010KT 3SM -SN SCT012 BKN028 OVC035 M09/M12 A3054 RMK AO2 P0000
KEKQ 161634Z AUTO 29008KT 2 1/2SM -SN FEW012 OVC033 M09/M12 A3054 RMK AO2 VIS 1 3/4V4 P0000
KEKQ 161556Z AUTO 31010KT 3SM -SN BR FEW012 SCT031 OVC039 M09/M11 A3054 RMK AO2 SLP371 P0000 T10891111
KEKQ 161530Z AUTO 31009KT 3SM -SN BR SCT012 BKN029 OVC036 M08/M11 A3054 RMK AO2 P0000
KEKQ 161503Z AUTO 31007KT 1 3/4SM -SN BR SCT013 BKN019 OVC028 M09/M11 A3054 RMK AO2 P0000
KEKQ 161456Z AUTO 32006KT 2SM -SN BR BKN013 OVC018 M09/M11 A3053 RMK AO2 SLP367 P0000 60000 T10891111 52011
KEKQ 161407Z AUTO 33008KT 1SM -SN BR BKN013 OVC018 M09/M11 A3052 RMK AO2 P0000 RVRNO
KEKQ 161356Z AUTO 31008KT 1 1/4SM -SN BR OVC015 M09/M11 A3052 RMK AO2 SLP362 P0000 T10891106
KEKQ 161344Z AUTO 32007KT 1 1/4SM -SN BR BKN011 OVC016 M09/M11 A3052 RMK AO2 P0000
KEKQ 161323Z AUTO 30010KT 3/4SM -SN BR OVC013 M09/M10 A3052 RMK AO2 P0000 RVRNO
KEKQ 161319Z AUTO 29009KT 1SM -SN BR OVC015 M09/M10 A3052 RMK AO2 P0000 RVRNO
KEKQ 161256Z AUTO 29009KT 1 1/4SM -SN BR OVC013 M08/M10 A3051 RMK AO2 SLP358 P0000 T10831100
KEKQ 161236Z AUTO 30007KT 1 3/4SM -SN BR OVC013 M08/M10 A3051 RMK AO2 P0000
KEKQ 161156Z AUTO 31009KT 9SM -SN OVC011 M08/M09 A3050 RMK AO2 SLP356 P0000 60000 T10781094 11011 21078 53016
KEKQ 161056Z AUTO 29008KT 9SM -SN OVC013 M07/M09 A3048 RMK AO2 SLP349 P0000 T10721089
KEKQ 161008Z AUTO 31008KT 9SM -SN BKN013 OVC019 M06/M08 A3046 RMK AO2 P0000
KEKQ 160956Z AUTO 30010KT 9SM -SN SCT013 OVC017 M06/M08 A3046 RMK AO2 SLP342 P0000 T10611083
KEKQ 160915Z AUTO 29009KT 9SM -SN OVC015 M05/M08 A3046 RMK AO2 P0000
KEKQ 160856Z AUTO 30008KT 9SM -SN OVC013 M04/M07 A3045 RMK AO2 SLP341 P0000 60000 T10441072 53017
KEKQ 160756Z AUTO 31010KT 9SM -SN OVC011 M03/M05 A3042 RMK AO2 SNB01 SLP328 P0000 T10331050
KEKQ 160656Z AUTO 29010KT 10SM OVC011 M02/M03 A3040 RMK AO2 SLP323 T10171033
KEKQ 160556Z AUTO 29006KT 10SM OVC013 M01/M02 A3040 RMK AO2 UPB0458E33SNB16E27 SLP322 P0000 60000 T10111022 10044 21017 53001
KEKQ 160546Z AUTO 29008KT 10SM BKN013 BKN018 OVC060 M01/M02 A3040 RMK AO2 UPB0458E33SNB16E27 P0000
KEKQ 160530Z AUTO 30005KT 10SM UP SCT015 OVC060 M01/M03 A3039 RMK AO2 UPB0458SNB16E27 P0000
KEKQ 160456Z AUTO 31005KT 10SM BKN013 OVC060 M01/M02 A3040 RMK AO2 SLP322 T10061022
KEKQ 160450Z AUTO 30006KT 10SM BKN013 OVC060 M01/M02 A3040 RMK AO2
KEKQ 160356Z AUTO 32003KT 10SM OVC015 M02/M03 A3039 RMK AO2 SLP321 T10171028 400611117
KEKQ 160341Z AUTO 29004KT 10SM BKN015 M02/M03 A3038 RMK AO2
KEKQ 160256Z AUTO 31006KT 10SM CLR 00/M02 A3038 RMK AO2 SLP317 T00001022 53014
KEKQ 160156Z AUTO 32008KT 10SM SCT055 BKN085 01/M02 A3036 RMK AO2 SLP308 T00061022
KEKQ 160056Z AUTO 30005KT 10SM FEW060 OVC080 02/M01 A3034 RMK AO2 SLP299 T00171011
KEKQ 152356Z AUTO 26016G21KT 10SM OVC043 04/M02 A3034 RMK AO2 SLP302 T00391022 10061 20039 51011
KEKQ 152256Z AUTO 26013G18KT 10SM OVC048 04/M03 A3033 RMK AO2 SLP300 T00441033
KEKQ 152156Z AUTO 26012KT 10SM OVC055 04/M03 A3032 RMK AO2 SLP297 T00441028
KEKQ 152056Z AUTO 24016KT 10SM OVC060 06/M04 A3030 RMK AO2 SLP291 T00561044 55008
KEKQ 151956Z AUTO 24017KT 10SM SCT085 06/M04 A3029 RMK AO2 PK WND 23026/1929 SLP288 T00611039 TSNO
KEKQ 151856Z AUTO 23013G21KT 180V280 10SM OVC100 05/M04 A3029 RMK AO2 SLP284 T00501039
KEKQ 151756Z AUTO 25021G27KT 10SM FEW100 04/M06 A3033 RMK AO2 PK WND 25027/1753 SLP297 T00441061 10044 21028 58011
KEKQ 151656Z AUTO 22016G24KT 10SM CLR 03/M06 A3035 RMK AO2 SLP307 T00281061
KEKQ 151556Z AUTO 21012G21KT 10SM FEW050 02/M07 A3038 RMK AO2 SLP315 T00221072
KEKQ 151456Z AUTO 12006KT 10SM CLR 01/M08 A3036 RMK AO2 SLP307 T00111078 58005 TSNO